Time;durP1;ratioP1;P1;durP2;ratioP2;P2;SDS_P1;SDS_P2;PMS_P1;PMS_P2;Temp;Humidity;BMP_temperature;BMP_pressure;BME280_temperature;BME280_humidity;BME280_pressure;Samples;Min_cycle;Max_cycle;Signal;HPM_P1;HPM_P2
2023/07/25 00:02:32;;;;;;;32.30;15.23;;;;;;;;;;6268306;28;20117;-59
2023/07/25 00:05:32;;;;;;;32.80;14.57;;;;;;;;;;6266508;28;20040;-60
2023/07/25 00:08:33;;;;;;;30.97;14.47;;;;;;;;;;6267399;28;20163;-60
2023/07/25 00:11:33;;;;;;;31.90;12.83;;;;;;;;;;6265165;28;20056;-59
2023/07/25 00:14:34;;;;;;;31.17;12.77;;;;;;;;;;6267645;28;20073;-60
2023/07/25 00:17:35;;;;;;;29.33;11.93;;;;;;;;;;6268089;28;20040;-59
2023/07/25 00:20:36;;;;;;;27.37;11.00;;;;;;;;;;6270590;28;20396;-60
2023/07/25 00:23:36;;;;;;;27.73;12.40;;;;;;;;;;6268714;28;20036;-60
2023/07/25 00:26:37;;;;;;;33.90;13.00;;;;;;;;;;6266879;28;20191;-60
2023/07/25 00:29:38;;;;;;;32.73;13.97;;;;;;;;;;6270318;28;20045;-60
2023/07/25 00:32:38;;;;;;;31.97;13.13;;;;;;;;;;6273775;28;20036;-58
2023/07/25 00:35:39;;;;;;;34.17;13.30;;;;;;;;;;6270432;28;20044;-60
2023/07/25 00:38:39;;;;;;;31.23;13.57;;;;;;;;;;6273008;28;20542;-59
2023/07/25 00:41:40;;;;;;;33.67;13.80;;;;;;;;;;6285612;28;20041;-59
2023/07/25 00:44:41;;;;;;;36.67;14.40;;;;;;;;;;6270918;28;20191;-60
2023/07/25 00:47:41;;;;;;;31.53;13.97;;;;;;;;;;6269987;28;20465;-60
2023/07/25 00:50:42;;;;;;;40.63;14.17;;;;;;;;;;6270742;28;20041;-60
2023/07/25 00:53:43;;;;;;;33.77;13.53;;;;;;;;;;6271573;28;20051;-60
2023/07/25 00:56:43;;;;;;;38.93;15.33;;;;;;;;;;6270897;28;20129;-60
2023/07/25 00:59:45;;;;;;;35.00;14.97;;;;;;;;;;6273574;28;20041;-60
2023/07/25 01:02:45;;;;;;;34.25;15.02;;;;;;;;;;6271450;28;20049;-59
2023/07/25 01:05:48;;;;;;;40.37;15.27;;;;;;;;;;6269529;28;20052;-59
2023/07/25 01:08:54;;;;;;;35.53;14.98;;;;;;;;;;6271313;28;20049;-60
2023/07/25 01:11:54;;;;;;;37.80;15.15;;;;;;;;;;6270856;28;20342;-60
2023/07/25 01:14:55;;;;;;;39.33;15.70;;;;;;;;;;6271536;28;20040;-60
2023/07/25 01:17:56;;;;;;;36.87;15.70;;;;;;;;;;6270853;28;20412;-60
2023/07/25 01:20:57;;;;;;;38.03;15.20;;;;;;;;;;6271775;28;20033;-60
2023/07/25 01:24:02;;;;;;;37.20;15.83;;;;;;;;;;6270850;28;20977;-60
2023/07/25 01:27:02;;;;;;;38.65;16.27;;;;;;;;;;6272139;28;20342;-60
2023/07/25 01:30:04;;;;;;;35.37;15.20;;;;;;;;;;6270149;28;20036;-60
2023/07/25 01:33:04;;;;;;;34.38;14.50;;;;;;;;;;6266162;28;20410;-60
2023/07/25 01:36:05;;;;;;;36.47;14.63;;;;;;;;;;6268142;28;20051;-60
2023/07/25 01:39:06;;;;;;;34.13;14.90;;;;;;;;;;6267813;28;20137;-60
2023/07/25 01:42:06;;;;;;;40.97;15.30;;;;;;;;;;6274172;28;20407;-60
2023/07/25 01:45:07;;;;;;;33.20;15.13;;;;;;;;;;6268885;28;20044;-60
2023/07/25 01:48:08;;;;;;;34.07;14.93;;;;;;;;;;6270511;28;20166;-60
2023/07/25 01:51:09;;;;;;;35.27;15.87;;;;;;;;;;6271093;28;20044;-60
2023/07/25 01:54:09;;;;;;;35.67;14.90;;;;;;;;;;6267118;28;20044;-60
2023/07/25 01:57:10;;;;;;;30.73;14.20;;;;;;;;;;6269820;28;20051;-60
2023/07/25 02:00:11;;;;;;;34.97;15.97;;;;;;;;;;6286124;28;20044;-60
2023/07/25 02:03:15;;;;;;;35.03;15.02;;;;;;;;;;6277189;28;20036;-60
2023/07/25 02:06:16;;;;;;;38.40;15.90;;;;;;;;;;6274296;28;20684;-60
2023/07/25 02:09:17;;;;;;;31.40;14.43;;;;;;;;;;6276820;28;20086;-60
2023/07/25 02:12:18;;;;;;;35.83;15.57;;;;;;;;;;6277725;28;20050;-60
2023/07/25 02:15:19;;;;;;;33.35;14.50;;;;;;;;;;6272316;28;20484;-60
2023/07/25 02:18:19;;;;;;;33.63;15.43;;;;;;;;;;6276889;28;20095;-59
2023/07/25 02:21:20;;;;;;;30.40;13.07;;;;;;;;;;6271536;28;20488;-60
2023/07/25 02:24:20;;;;;;;34.97;16.40;;;;;;;;;;6272011;28;20060;-60
2023/07/25 02:27:21;;;;;;;33.37;15.70;;;;;;;;;;6271373;28;20041;-60
2023/07/25 02:30:21;;;;;;;43.67;15.60;;;;;;;;;;6272833;28;20040;-60
2023/07/25 02:33:22;;;;;;;33.00;15.13;;;;;;;;;;6271947;28;20638;-60
2023/07/25 02:36:23;;;;;;;40.87;16.27;;;;;;;;;;6281254;28;20046;-60
2023/07/25 02:39:23;;;;;;;38.40;16.27;;;;;;;;;;6271226;28;20472;-59
2023/07/25 02:42:24;;;;;;;31.97;15.47;;;;;;;;;;6269754;28;20049;-60
2023/07/25 02:45:24;;;;;;;30.60;14.10;;;;;;;;;;6288720;28;20072;-59
2023/07/25 02:48:25;;;;;;;36.83;15.73;;;;;;;;;;6280277;28;20110;-60
2023/07/25 02:51:26;;;;;;;33.33;15.03;;;;;;;;;;6270208;28;20488;-59
2023/07/25 02:54:26;;;;;;;33.60;15.47;;;;;;;;;;6270515;28;20045;-60
2023/07/25 02:57:27;;;;;;;33.03;13.37;;;;;;;;;;6267177;28;20056;-59
2023/07/25 03:00:27;;;;;;;29.37;14.10;;;;;;;;;;6270322;28;20385;-59
2023/07/25 03:03:29;;;;;;;33.00;14.30;;;;;;;;;;6269970;28;20411;-60
2023/07/25 03:06:29;;;;;;;27.90;13.57;;;;;;;;;;6267330;28;20454;-59
2023/07/25 03:09:30;;;;;;;41.13;17.00;;;;;;;;;;6277733;28;20141;-60
2023/07/25 03:12:30;;;;;;;38.30;16.03;;;;;;;;;;6285836;28;20407;-60
2023/07/25 03:15:31;;;;;;;33.07;16.60;;;;;;;;;;6268925;28;20051;-60
2023/07/25 03:18:32;;;;;;;44.37;18.23;;;;;;;;;;6268452;28;21369;-60
2023/07/25 03:21:32;;;;;;;44.27;18.03;;;;;;;;;;6268396;28;20040;-60
2023/07/25 03:24:33;;;;;;;41.77;19.07;;;;;;;;;;6266457;28;20053;-59
2023/07/25 03:27:33;;;;;;;42.27;17.70;;;;;;;;;;6269395;28;20064;-59
2023/07/25 03:30:34;;;;;;;38.60;17.60;;;;;;;;;;6271922;28;20041;-60
2023/07/25 03:33:35;;;;;;;35.65;15.35;;;;;;;;;;6268311;28;20063;-59
2023/07/25 03:36:36;;;;;;;36.37;16.13;;;;;;;;;;6266158;28;20044;-60
2023/07/25 03:39:36;;;;;;;36.97;16.27;;;;;;;;;;6268896;28;20041;-60
2023/07/25 03:42:37;;;;;;;36.30;17.83;;;;;;;;;;6267386;28;20099;-60
2023/07/25 03:45:38;;;;;;;39.00;17.07;;;;;;;;;;6267955;28;20136;-59
2023/07/25 03:48:38;;;;;;;46.83;18.10;;;;;;;;;;6267172;28;20048;-59
2023/07/25 03:51:39;;;;;;;46.25;18.80;;;;;;;;;;6269986;28;20041;-59
2023/07/25 03:54:40;;;;;;;44.50;18.03;;;;;;;;;;6268355;28;20052;-59
2023/07/25 03:57:40;;;;;;;39.53;16.97;;;;;;;;;;6270134;28;20076;-59
2023/07/25 04:00:41;;;;;;;36.33;15.93;;;;;;;;;;6271684;28;20082;-59
2023/07/25 04:03:42;;;;;;;36.63;16.53;;;;;;;;;;6265639;28;20044;-60
2023/07/25 04:06:42;;;;;;;40.30;16.23;;;;;;;;;;6267241;28;20045;-60
2023/07/25 04:09:43;;;;;;;38.90;16.87;;;;;;;;;;6270624;28;20086;-60
2023/07/25 04:12:43;;;;;;;48.63;18.93;;;;;;;;;;6269116;28;20048;-60
2023/07/25 04:15:44;;;;;;;43.63;18.47;;;;;;;;;;6266117;28;20049;-60
2023/07/25 04:18:44;;;;;;;49.20;20.00;;;;;;;;;;6269065;28;20518;-60
2023/07/25 04:21:45;;;;;;;44.37;20.13;;;;;;;;;;6270144;28;20072;-59
2023/07/25 04:24:45;;;;;;;44.67;19.40;;;;;;;;;;6267289;28;20393;-60
2023/07/25 04:27:46;;;;;;;46.30;19.37;;;;;;;;;;6265199;28;20576;-60
2023/07/25 04:30:46;;;;;;;41.73;19.40;;;;;;;;;;6267052;28;20049;-60
2023/07/25 04:33:47;;;;;;;45.13;18.57;;;;;;;;;;6282463;28;20056;-60
2023/07/25 04:36:48;;;;;;;49.03;19.53;;;;;;;;;;6281631;28;20051;-60
2023/07/25 04:39:49;;;;;;;51.43;20.07;;;;;;;;;;6270017;28;20132;-60
2023/07/25 04:42:49;;;;;;;44.37;19.60;;;;;;;;;;6265977;28;20056;-59
2023/07/25 04:45:50;;;;;;;44.13;19.17;;;;;;;;;;6265503;28;20060;-60
2023/07/25 04:48:50;;;;;;;46.53;19.53;;;;;;;;;;6269181;28;20041;-60
2023/07/25 04:51:51;;;;;;;46.57;18.60;;;;;;;;;;6266999;28;20045;-60
2023/07/25 04:54:55;;;;;;;42.63;17.50;;;;;;;;;;6271466;28;20048;-60
2023/07/25 04:57:56;;;;;;;47.35;19.10;;;;;;;;;;6283329;28;20048;-60
2023/07/25 05:00:56;;;;;;;46.43;19.30;;;;;;;;;;6268973;28;20049;-60
2023/07/25 05:03:57;;;;;;;49.47;20.27;;;;;;;;;;6268767;28;20136;-60
2023/07/25 05:06:58;;;;;;;44.77;19.53;;;;;;;;;;6265199;28;20066;-59
2023/07/25 05:09:58;;;;;;;45.60;19.47;;;;;;;;;;6267222;28;20067;-60
2023/07/25 05:12:59;;;;;;;51.97;19.70;;;;;;;;;;6270214;28;20467;-60
2023/07/25 05:16:00;;;;;;;46.63;18.63;;;;;;;;;;6269429;28;20052;-60
2023/07/25 05:19:00;;;;;;;42.03;17.90;;;;;;;;;;6272698;28;20052;-59
2023/07/25 05:22:01;;;;;;;37.27;15.77;;;;;;;;;;6270514;28;20170;-59
2023/07/25 05:25:02;;;;;;;41.17;17.43;;;;;;;;;;6269893;28;20388;-60
2023/07/25 05:28:02;;;;;;;45.23;17.67;;;;;;;;;;6273781;28;20500;-60
2023/07/25 05:31:03;;;;;;;46.97;19.00;;;;;;;;;;6267993;28;20045;-60
2023/07/25 05:34:04;;;;;;;39.67;17.93;;;;;;;;;;6268197;28;20041;-60
2023/07/25 05:37:05;;;;;;;43.03;18.40;;;;;;;;;;6268369;28;20032;-60
2023/07/25 05:40:06;;;;;;;42.47;17.63;;;;;;;;;;6268115;28;20068;-60
2023/07/25 05:43:07;;;;;;;40.28;18.83;;;;;;;;;;6269900;28;20107;-59
2023/07/25 05:46:08;;;;;;;44.83;17.77;;;;;;;;;;6269388;28;20045;-60
2023/07/25 05:49:09;;;;;;;39.08;17.75;;;;;;;;;;6268451;28;20055;-60
2023/07/25 05:52:10;;;;;;;40.73;16.60;;;;;;;;;;6270677;28;20045;-59
2023/07/25 05:55:10;;;;;;;42.97;17.20;;;;;;;;;;6273228;28;20101;-60
2023/07/25 05:58:14;;;;;;;43.47;17.63;;;;;;;;;;6271167;28;20068;-60
2023/07/25 06:01:14;;;;;;;39.03;16.60;;;;;;;;;;6272582;28;20136;-59
2023/07/25 06:04:15;;;;;;;39.53;16.50;;;;;;;;;;6270240;28;20256;-60
2023/07/25 06:07:15;;;;;;;39.77;16.93;;;;;;;;;;6270560;28;20045;-59
2023/07/25 06:10:16;;;;;;;38.73;16.90;;;;;;;;;;6269764;28;20064;-60
2023/07/25 06:13:17;;;;;;;39.43;15.23;;;;;;;;;;6282794;28;20045;-60
2023/07/25 06:16:17;;;;;;;36.80;17.30;;;;;;;;;;6287844;28;20056;-60
2023/07/25 06:19:18;;;;;;;37.23;16.10;;;;;;;;;;6272622;28;20495;-59
2023/07/25 06:22:18;;;;;;;40.43;16.30;;;;;;;;;;6271386;28;20083;-59
2023/07/25 06:25:19;;;;;;;41.30;15.73;;;;;;;;;;6267581;28;20511;-59
2023/07/25 06:28:20;;;;;;;37.40;15.73;;;;;;;;;;6269064;28;20065;-59
2023/07/25 06:31:20;;;;;;;34.23;15.80;;;;;;;;;;6271094;28;20046;-59
2023/07/25 06:34:21;;;;;;;38.00;15.53;;;;;;;;;;6270432;28;20048;-59
2023/07/25 06:37:22;;;;;;;39.13;15.73;;;;;;;;;;6270114;28;20037;-60
2023/07/25 06:40:23;;;;;;;39.10;15.70;;;;;;;;;;6271349;28;20041;-60
2023/07/25 06:43:23;;;;;;;36.07;15.23;;;;;;;;;;6270771;28;20041;-60
2023/07/25 06:46:24;;;;;;;37.67;15.33;;;;;;;;;;6269017;28;20049;-60
2023/07/25 06:49:25;;;;;;;38.10;15.40;;;;;;;;;;6270358;28;20447;-60
2023/07/25 06:52:26;;;;;;;31.07;15.70;;;;;;;;;;6268759;28;20458;-59
2023/07/25 06:55:26;;;;;;;37.93;15.97;;;;;;;;;;6267589;28;20048;-60
2023/07/25 06:58:27;;;;;;;35.00;15.13;;;;;;;;;;6271423;28;20120;-60
2023/07/25 07:01:28;;;;;;;32.93;14.87;;;;;;;;;;6268257;28;20521;-60
2023/07/25 07:04:28;;;;;;;33.65;14.75;;;;;;;;;;6269613;28;20049;-60
2023/07/25 07:07:29;;;;;;;35.30;14.70;;;;;;;;;;6269773;28;20051;-60
2023/07/25 07:10:32;;;;;;;30.37;13.90;;;;;;;;;;6270399;28;20075;-60
2023/07/25 07:13:32;;;;;;;34.20;14.82;;;;;;;;;;6271474;28;20037;-60
2023/07/25 07:16:33;;;;;;;37.60;14.90;;;;;;;;;;6268327;28;20180;-60
2023/07/25 07:19:34;;;;;;;30.20;13.73;;;;;;;;;;6269798;28;20044;-59
2023/07/25 07:22:34;;;;;;;32.37;13.37;;;;;;;;;;6268430;28;20302;-60
2023/07/25 07:25:36;;;;;;;29.67;13.47;;;;;;;;;;6267252;28;20134;-60
2023/07/25 07:28:37;;;;;;;28.10;13.30;;;;;;;;;;6267988;28;20041;-61
2023/07/25 07:31:38;;;;;;;24.83;11.47;;;;;;;;;;6269178;28;20538;-61
2023/07/25 07:34:39;;;;;;;31.33;12.40;;;;;;;;;;6267835;28;20045;-61
2023/07/25 07:37:39;;;;;;;29.80;12.00;;;;;;;;;;6268398;28;20415;-61
2023/07/25 07:40:40;;;;;;;23.73;10.55;;;;;;;;;;6276862;28;20419;-61
2023/07/25 07:43:40;;;;;;;21.50;10.93;;;;;;;;;;6286784;28;20083;-61
2023/07/25 07:46:41;;;;;;;23.53;11.97;;;;;;;;;;6268870;28;20143;-60
2023/07/25 07:49:42;;;;;;;23.10;10.90;;;;;;;;;;6270734;28;20041;-61
2023/07/25 07:52:42;;;;;;;25.03;10.97;;;;;;;;;;6282580;28;20059;-61
2023/07/25 07:55:43;;;;;;;22.73;11.40;;;;;;;;;;6277058;28;20033;-60
2023/07/25 07:58:44;;;;;;;25.00;10.80;;;;;;;;;;6270282;28;20132;-61
2023/07/25 08:01:45;;;;;;;21.05;10.45;;;;;;;;;;6270390;28;20049;-61
2023/07/25 08:04:45;;;;;;;19.60;10.23;;;;;;;;;;6266522;28;20484;-61
2023/07/25 08:07:46;;;;;;;24.10;11.37;;;;;;;;;;6268988;28;20049;-61
2023/07/25 08:10:46;;;;;;;22.40;10.90;;;;;;;;;;6266464;28;20040;-61
2023/07/25 08:13:47;;;;;;;26.37;11.10;;;;;;;;;;6267708;28;20060;-61
2023/07/25 08:16:48;;;;;;;21.80;11.53;;;;;;;;;;6269039;28;20523;-61
2023/07/25 08:19:48;;;;;;;23.73;11.23;;;;;;;;;;6269075;28;20033;-61
2023/07/25 08:22:49;;;;;;;23.02;11.40;;;;;;;;;;6269468;28;20448;-61
2023/07/25 08:25:50;;;;;;;26.00;11.30;;;;;;;;;;6269188;28;20419;-61
2023/07/25 08:28:51;;;;;;;23.58;11.15;;;;;;;;;;6267540;28;20049;-61
2023/07/25 08:31:51;;;;;;;22.30;10.93;;;;;;;;;;6269843;28;20045;-61
2023/07/25 08:34:52;;;;;;;21.53;11.43;;;;;;;;;;6267068;28;20136;-61
2023/07/25 08:37:52;;;;;;;24.23;11.67;;;;;;;;;;6267388;28;20048;-61
2023/07/25 08:41:00;;;;;;;21.90;11.20;;;;;;;;;;6269098;28;20064;-60
2023/07/25 08:44:02;;;;;;;21.95;10.93;;;;;;;;;;6268619;28;20510;-61
2023/07/25 08:47:12;;;;;;;24.10;10.65;;;;;;;;;;6268167;28;20514;-60
2023/07/25 08:50:16;;;;;;;20.75;10.75;;;;;;;;;;6274048;28;20051;-61
2023/07/25 08:53:18;;;;;;;21.58;11.02;;;;;;;;;;6273454;28;20043;-61
2023/07/25 08:56:19;;;;;;;19.83;10.65;;;;;;;;;;6272925;28;20040;-61
2023/07/25 08:59:21;;;;;;;21.30;10.77;;;;;;;;;;6273385;28;20052;-61
2023/07/25 09:02:22;;;;;;;21.67;10.80;;;;;;;;;;6273688;28;20416;-61
2023/07/25 09:05:23;;;;;;;22.05;10.98;;;;;;;;;;6269887;28;20913;-61
2023/07/25 09:08:24;;;;;;;22.20;11.25;;;;;;;;;;6272024;28;20079;-60
2023/07/25 09:11:25;;;;;;;25.63;11.77;;;;;;;;;;6291283;28;20084;-61
2023/07/25 09:14:27;;;;;;;21.08;10.80;;;;;;;;;;6281031;28;20044;-61
2023/07/25 09:17:29;;;;;;;;;;;;;;;;;;6273822;28;20047;-61
2023/07/25 09:20:29;;;;;;;22.67;10.90;;;;;;;;;;6276316;28;19925;-61
2023/07/25 09:23:30;;;;;;;24.08;11.52;;;;;;;;;;6271184;28;20502;-60
2023/07/25 09:26:31;;;;;;;20.90;10.60;;;;;;;;;;6268769;28;20087;-61
2023/07/25 09:29:37;;;;;;;21.60;11.33;;;;;;;;;;6272245;28;20127;-61
2023/07/25 09:32:37;;;;;;;26.73;11.30;;;;;;;;;;6272601;28;20068;-60
2023/07/25 09:35:45;;;;;;;25.63;11.97;;;;;;;;;;6270533;28;20204;-60
2023/07/25 09:38:50;;;;;;;20.58;10.85;;;;;;;;;;6270617;28;20419;-60
2023/07/25 09:41:51;;;;;;;21.58;11.25;;;;;;;;;;6270562;28;20045;-60
2023/07/25 09:44:52;;;;;;;19.53;10.73;;;;;;;;;;6272292;28;20752;-60
2023/07/25 09:47:53;;;;;;;25.85;10.50;;;;;;;;;;6273664;28;20056;-60
2023/07/25 09:50:56;;;;;;;21.27;10.77;;;;;;;;;;6292164;28;20439;-60
2023/07/25 09:53:57;;;;;;;23.15;10.82;;;;;;;;;;6278896;28;20041;-59
2023/07/25 09:56:57;;;;;;;21.33;11.23;;;;;;;;;;6272031;28;20416;-61
2023/07/25 09:59:59;;;;;;;18.85;10.15;;;;;;;;;;6271953;28;20068;-60
2023/07/25 10:03:00;;;;;;;20.50;10.02;;;;;;;;;;6270060;28;20416;-60
2023/07/25 10:06:04;;;;;;;17.77;9.30;;;;;;;;;;6272396;28;20083;-61
2023/07/25 10:09:06;;;;;;;23.23;10.30;;;;;;;;;;6270470;28;20052;-61
2023/07/25 10:12:08;;;;;;;17.98;9.13;;;;;;;;;;6272640;28;20134;-60
2023/07/25 10:15:10;;;;;;;19.13;10.00;;;;;;;;;;6291313;28;20103;-60
2023/07/25 10:18:25;;;;;;;19.88;9.27;;;;;;;;;;6273151;28;20048;-61
2023/07/25 10:21:27;;;;;;;18.50;8.85;;;;;;;;;;6271483;28;20040;-61
2023/07/25 10:24:32;;;;;;;24.02;10.35;;;;;;;;;;6272441;28;20045;-61
2023/07/25 10:27:33;;;;;;;19.80;10.05;;;;;;;;;;6269759;28;20068;-60
2023/07/25 10:30:45;;;;;;;19.45;9.75;;;;;;;;;;6271909;28;20182;-60
2023/07/25 10:33:53;;;;;;;20.73;9.18;;;;;;;;;;6270463;28;20048;-60
2023/07/25 10:37:25;;;;;;;22.98;10.57;;;;;;;;;;6266727;28;20036;-61
2023/07/25 10:40:25;;;;;;;19.60;9.98;;;;;;;;;;6270918;28;20052;-61
2023/07/25 10:43:29;;;;;;;18.85;9.05;;;;;;;;;;6268235;28;20160;-61
2023/07/25 10:46:32;;;;;;;20.55;9.50;;;;;;;;;;6269968;28;20052;-61
2023/07/25 10:49:53;;;;;;;18.42;9.35;;;;;;;;;;6268546;28;20105;-60
2023/07/25 10:52:54;;;;;;;17.60;8.63;;;;;;;;;;6268451;28;20048;-60
2023/07/25 10:56:04;;;;;;;19.08;9.15;;;;;;;;;;6268325;28;20045;-61
2023/07/25 10:59:08;;;;;;;16.27;8.82;;;;;;;;;;6268204;28;20048;-60
2023/07/25 11:02:38;;;;;;;15.93;8.48;;;;;;;;;;6271298;28;20737;-60
2023/07/25 11:05:39;;;;;;;15.95;7.80;;;;;;;;;;6270483;28;20451;-61
2023/07/25 11:08:41;;;;;;;15.17;7.70;;;;;;;;;;6275130;28;20136;-61
2023/07/25 11:11:46;;;;;;;13.98;7.40;;;;;;;;;;6268875;28;20044;-60
2023/07/25 11:14:47;;;;;;;14.88;7.50;;;;;;;;;;6277106;28;20458;-61
2023/07/25 11:17:48;;;;;;;14.23;7.67;;;;;;;;;;6271481;28;20036;-60
2023/07/25 11:21:00;;;;;;;14.73;7.60;;;;;;;;;;6269743;28;20052;-60
2023/07/25 11:24:05;;;;;;;16.08;8.15;;;;;;;;;;6270474;28;20052;-60
2023/07/25 11:27:06;;;;;;;14.60;8.60;;;;;;;;;;6270772;28;20060;-61
2023/07/25 11:30:13;;;;;;;13.93;7.73;;;;;;;;;;6274212;28;20036;-60
2023/07/25 11:33:13;;;;;;;15.38;7.80;;;;;;;;;;6269037;28;20055;-60
2023/07/25 11:36:14;;;;;;;14.97;7.50;;;;;;;;;;6272414;28;20492;-61
2023/07/25 11:39:15;;;;;;;15.23;7.33;;;;;;;;;;6270927;28;20075;-61
2023/07/25 11:42:16;;;;;;;13.10;7.63;;;;;;;;;;6271405;28;20087;-61
2023/07/25 11:45:17;;;;;;;14.90;7.80;;;;;;;;;;6273288;28;20400;-61
2023/07/25 11:48:19;;;;;;;15.80;7.85;;;;;;;;;;6268595;28;20063;-61
2023/07/25 11:51:21;;;;;;;16.48;7.47;;;;;;;;;;6267770;28;20780;-60
2023/07/25 11:54:21;;;;;;;15.75;7.40;;;;;;;;;;6269499;28;20086;-60
2023/07/25 11:57:22;;;;;;;14.45;7.47;;;;;;;;;;6268719;28;20090;-60
2023/07/25 12:00:23;;;;;;;12.57;7.10;;;;;;;;;;6271201;28;20041;-61
2023/07/25 12:03:25;;;;;;;12.18;6.65;;;;;;;;;;6269091;28;20626;-60
2023/07/25 12:06:31;;;;;;;12.60;7.03;;;;;;;;;;6272804;28;20060;-61
2023/07/25 12:09:31;;;;;;;15.05;7.30;;;;;;;;;;6271147;28;20044;-61
2023/07/25 12:12:32;;;;;;;12.83;6.83;;;;;;;;;;6271400;28;20178;-62
2023/07/25 12:15:49;;;;;;;13.47;6.83;;;;;;;;;;6271518;28;20136;-61
2023/07/25 12:18:58;;;;;;;12.75;6.85;;;;;;;;;;6271595;28;20056;-61
2023/07/25 12:22:05;;;;;;;11.07;6.30;;;;;;;;;;6266241;28;20393;-62
2023/07/25 12:25:06;;;;;;;14.77;6.25;;;;;;;;;;6274853;28;20913;-61
2023/07/25 12:28:08;;;;;;;13.05;6.38;;;;;;;;;;6276370;28;20411;-61
2023/07/25 12:31:08;;;;;;;11.32;6.32;;;;;;;;;;6271736;28;20048;-60
2023/07/25 12:34:09;;;;;;;12.23;6.80;;;;;;;;;;6277876;28;20044;-61
2023/07/25 12:37:10;;;;;;;14.10;6.40;;;;;;;;;;6274840;28;20060;-60
2023/07/25 12:40:11;;;;;;;13.33;5.90;;;;;;;;;;6273616;28;20068;-61
2023/07/25 12:43:11;;;;;;;12.50;6.03;;;;;;;;;;6272981;28;20487;-61
2023/07/25 12:46:12;;;;;;;12.27;6.33;;;;;;;;;;6275914;28;20049;-60
2023/07/25 12:49:12;;;;;;;10.87;6.00;;;;;;;;;;6272869;28;20043;-61
2023/07/25 12:52:13;;;;;;;10.90;6.03;;;;;;;;;;6274597;28;20044;-61
2023/07/25 12:55:13;;;;;;;13.10;6.10;;;;;;;;;;6275674;28;20529;-60
2023/07/25 12:58:14;;;;;;;12.45;6.72;;;;;;;;;;6273924;28;20457;-61
2023/07/25 13:01:15;;;;;;;13.17;6.33;;;;;;;;;;6273147;28;20052;-60
2023/07/25 13:04:15;;;;;;;12.13;6.27;;;;;;;;;;6276190;28;20048;-61
2023/07/25 13:07:16;;;;;;;14.43;6.73;;;;;;;;;;6275852;28;20044;-61
2023/07/25 13:10:17;;;;;;;19.40;7.17;;;;;;;;;;6273644;28;20049;-60
2023/07/25 13:13:17;;;;;;;14.03;6.80;;;;;;;;;;6272466;28;20094;-61
2023/07/25 13:16:18;;;;;;;20.67;11.60;;;;;;;;;;6273963;28;20126;-61
2023/07/25 13:19:18;;;;;;;42.20;21.77;;;;;;;;;;6274132;28;20053;-60
2023/07/25 13:22:19;;;;;;;23.17;11.43;;;;;;;;;;6272361;28;20902;-60
2023/07/25 13:25:20;;;;;;;33.97;20.20;;;;;;;;;;6273326;28;20052;-60
2023/07/25 13:28:21;;;;;;;62.80;26.08;;;;;;;;;;6273240;28;20052;-61
2023/07/25 13:31:21;;;;;;;22.27;10.00;;;;;;;;;;6271769;28;20505;-61
2023/07/25 13:34:22;;;;;;;21.23;11.57;;;;;;;;;;6273471;28;20040;-60
2023/07/25 13:37:23;;;;;;;45.20;21.53;;;;;;;;;;6272302;28;20052;-61
2023/07/25 13:40:24;;;;;;;23.40;9.80;;;;;;;;;;6272462;28;20078;-61
2023/07/25 13:43:24;;;;;;;19.53;8.53;;;;;;;;;;6272198;28;20040;-60
2023/07/25 13:46:25;;;;;;;15.90;8.07;;;;;;;;;;6272020;28;20129;-61
2023/07/25 13:49:25;;;;;;;16.13;8.23;;;;;;;;;;6273580;28;20361;-60
2023/07/25 13:52:26;;;;;;;20.37;8.27;;;;;;;;;;6271918;28;20059;-60
2023/07/25 13:55:27;;;;;;;17.73;7.40;;;;;;;;;;6271023;28;20518;-61
2023/07/25 13:58:28;;;;;;;18.60;7.67;;;;;;;;;;6271838;28;20145;-61
2023/07/25 14:01:28;;;;;;;19.63;8.97;;;;;;;;;;6270109;28;20852;-60
2023/07/25 14:04:29;;;;;;;18.63;8.77;;;;;;;;;;6272785;28;20522;-60
2023/07/25 14:07:29;;;;;;;22.00;9.83;;;;;;;;;;6274108;28;20056;-60
2023/07/25 14:10:30;;;;;;;20.13;10.50;;;;;;;;;;6272706;28;20068;-60
2023/07/25 14:13:31;;;;;;;21.60;12.17;;;;;;;;;;6272122;28;20083;-60
2023/07/25 14:16:31;;;;;;;20.73;11.33;;;;;;;;;;6271876;28;20061;-60
2023/07/25 14:19:32;;;;;;;22.63;11.90;;;;;;;;;;6268251;28;20048;-61
2023/07/25 14:22:33;;;;;;;22.43;11.57;;;;;;;;;;6269855;28;20459;-61
2023/07/25 14:25:33;;;;;;;20.07;10.97;;;;;;;;;;6270714;28;20394;-60
2023/07/25 14:28:34;;;;;;;23.70;11.43;;;;;;;;;;6265930;28;20137;-61
2023/07/25 14:31:34;;;;;;;24.83;12.43;;;;;;;;;;6267855;28;20048;-61
2023/07/25 14:34:35;;;;;;;43.23;17.23;;;;;;;;;;6272781;28;20563;-61
2023/07/25 14:37:36;;;;;;;24.83;12.50;;;;;;;;;;6275363;28;20525;-61
2023/07/25 14:40:36;;;;;;;24.17;11.33;;;;;;;;;;6279806;28;20454;-63
2023/07/25 14:43:37;;;;;;;21.13;12.27;;;;;;;;;;6280511;28;20052;-61
2023/07/25 14:46:38;;;;;;;24.67;12.10;;;;;;;;;;6281044;28;20477;-61
2023/07/25 14:49:38;;;;;;;21.67;11.77;;;;;;;;;;6280319;28;21481;-62
2023/07/25 14:52:39;;;;;;;21.50;11.00;;;;;;;;;;6280289;28;20071;-62
2023/07/25 14:55:39;;;;;;;22.10;12.13;;;;;;;;;;6282769;28;20075;-61
2023/07/25 14:58:40;;;;;;;23.43;12.10;;;;;;;;;;6281109;28;20139;-61
2023/07/25 15:01:41;;;;;;;26.20;12.40;;;;;;;;;;6279364;28;20048;-61
2023/07/25 15:04:41;;;;;;;24.87;13.10;;;;;;;;;;6280119;28;20148;-63
2023/07/25 15:07:42;;;;;;;25.43;12.67;;;;;;;;;;6281055;28;20418;-62
2023/07/25 15:10:43;;;;;;;21.17;12.67;;;;;;;;;;6279327;28;20419;-62
2023/07/25 15:13:43;;;;;;;23.87;13.40;;;;;;;;;;6280868;28;20474;-61
2023/07/25 15:16:44;;;;;;;23.83;12.13;;;;;;;;;;6281992;28;20046;-60
2023/07/25 15:19:44;;;;;;;26.93;12.73;;;;;;;;;;6279394;28;20040;-61
2023/07/25 15:22:45;;;;;;;26.57;14.30;;;;;;;;;;6276025;28;20512;-61
2023/07/25 15:25:46;;;;;;;26.07;13.97;;;;;;;;;;6282334;28;20045;-62
2023/07/25 15:28:46;;;;;;;24.03;13.00;;;;;;;;;;6280010;28;20048;-62
2023/07/25 15:31:47;;;;;;;28.43;14.30;;;;;;;;;;6280333;28;20105;-62
2023/07/25 15:34:48;;;;;;;25.50;13.23;;;;;;;;;;6287688;28;20043;-62
2023/07/25 15:37:48;;;;;;;25.93;14.07;;;;;;;;;;6284928;28;20045;-62
2023/07/25 15:40:49;;;;;;;28.33;13.77;;;;;;;;;;6286258;28;20123;-62
2023/07/25 15:43:50;;;;;;;29.70;14.93;;;;;;;;;;6287196;28;21446;-62
2023/07/25 15:46:50;;;;;;;34.10;17.23;;;;;;;;;;6291131;28;20063;-62
2023/07/25 15:49:51;;;;;;;31.83;14.67;;;;;;;;;;6287806;28;20049;-62
2023/07/25 15:52:52;;;;;;;24.33;11.63;;;;;;;;;;6286047;28;20076;-61
2023/07/25 15:55:52;;;;;;;19.43;9.40;;;;;;;;;;6294768;28;20479;-62
2023/07/25 15:58:53;;;;;;;21.03;11.20;;;;;;;;;;6284216;28;20045;-62
2023/07/25 16:01:53;;;;;;;18.17;9.93;;;;;;;;;;6288128;28;20121;-62
2023/07/25 16:04:54;;;;;;;23.40;11.57;;;;;;;;;;6289298;28;20054;-60
2023/07/25 16:07:55;;;;;;;20.53;10.77;;;;;;;;;;6290706;28;20082;-60
2023/07/25 16:10:56;;;;;;;21.85;10.18;;;;;;;;;;6293345;28;20596;-61
2023/07/25 16:13:56;;;;;;;20.20;9.87;;;;;;;;;;6291161;28;20040;-61
2023/07/25 16:16:57;;;;;;;18.90;9.47;;;;;;;;;;6293283;28;20133;-62
2023/07/25 16:19:58;;;;;;;18.43;9.53;;;;;;;;;;6293608;28;20483;-61
2023/07/25 16:22:58;;;;;;;19.43;9.50;;;;;;;;;;6292066;28;20377;-60
2023/07/25 16:25:59;;;;;;;16.57;9.33;;;;;;;;;;6287064;28;20602;-61
2023/07/25 16:29:00;;;;;;;;;;;;;;;;;;6286503;28;20095;-61
2023/07/25 16:32:01;;;;;;;16.50;8.73;;;;;;;;;;6290800;28;20911;-60
2023/07/25 16:35:02;;;;;;;15.17;9.23;;;;;;;;;;6286752;28;20056;-60
2023/07/25 16:38:02;;;;;;;19.10;8.97;;;;;;;;;;6292701;28;20441;-62
2023/07/25 16:41:03;;;;;;;15.60;8.50;;;;;;;;;;6290628;28;20576;-62
2023/07/25 16:44:04;;;;;;;15.03;8.87;;;;;;;;;;6291429;28;20137;-62
2023/07/25 16:47:05;;;;;;;16.73;9.30;;;;;;;;;;6290970;28;21420;-61
2023/07/25 16:50:05;;;;;;;18.53;9.47;;;;;;;;;;6291309;28;20051;-61
2023/07/25 16:53:06;;;;;;;16.90;8.98;;;;;;;;;;6291060;28;20052;-61
2023/07/25 16:56:07;;;;;;;18.33;8.50;;;;;;;;;;6294022;28;20067;-61
2023/07/25 16:59:08;;;;;;;19.53;8.67;;;;;;;;;;6289968;28;20082;-62
2023/07/25 17:02:09;;;;;;;17.85;8.80;;;;;;;;;;6292447;28;20576;-61
2023/07/25 17:05:13;;;;;;;18.40;9.17;;;;;;;;;;6290929;28;20060;-61
2023/07/25 17:08:15;;;;;;;20.02;8.77;;;;;;;;;;6290340;28;20134;-62
2023/07/25 17:11:16;;;;;;;17.13;9.10;;;;;;;;;;6297373;28;20543;-60
2023/07/25 17:14:17;;;;;;;18.30;8.90;;;;;;;;;;6293995;28;20035;-61
2023/07/25 17:17:18;;;;;;;15.87;9.13;;;;;;;;;;6292429;28;20055;-61
2023/07/25 17:20:20;;;;;;;14.83;8.90;;;;;;;;;;6283385;28;20048;-59
2023/07/25 17:23:21;;;;;;;20.25;10.00;;;;;;;;;;6291692;28;20048;-59
2023/07/25 17:26:22;;;;;;;15.87;8.50;;;;;;;;;;6295646;28;20685;-59
2023/07/25 17:29:22;;;;;;;15.53;9.00;;;;;;;;;;6288079;28;20040;-60
2023/07/25 17:32:23;;;;;;;20.33;9.63;;;;;;;;;;6291299;28;20059;-60
2023/07/25 17:35:24;;;;;;;22.60;10.60;;;;;;;;;;6293674;28;20510;-60
2023/07/25 17:38:24;;;;;;;19.00;11.03;;;;;;;;;;6290236;28;20052;-60
2023/07/25 17:41:25;;;;;;;17.03;10.63;;;;;;;;;;6293417;28;20138;-60